.
WxDataArchive / Data Records for 2011-03-09
2011-03-08 March 2011 2011-03-10

Data Records for Wednesday, 09 March 2011

Time	Temp	Chill	HIndex	Humid	Dewpt	 Wind 	HiWind	WindDir	Rain 	Barom 
-----	----	-----	------	-----	-----	------	------	-------	-----	----- 
00:00	37.0	37.0	37.0	80	31.4	3	7	90	0.00	30.121 
00:05	37.0	37.0	37.0	80	31.4	3	10	90	0.00	30.121 
00:10	36.9	36.9	36.9	81	31.6	3	7	112	0.00	30.121 
00:15	36.9	36.9	36.9	81	31.6	3	7	90	0.00	30.102 
00:20	36.9	36.9	36.9	81	31.6	3	7	90	0.00	30.102 
00:25	36.8	36.8	36.8	81	31.5	3	10	90	0.00	30.102 
00:30	36.8	36.8	36.8	81	31.5	3	6	90	0.00	30.098 
00:35	36.8	36.8	36.8	81	31.5	2	7	90	0.00	30.098 
00:40	36.8	36.8	36.8	81	31.5	1	4	90	0.00	30.098 
00:45	36.9	36.9	36.9	81	31.6	2	4	90	0.00	30.099 
00:50	36.9	36.9	36.9	81	31.6	2	4	68	0.00	30.099 
00:55	36.9	36.9	36.9	81	31.6	3	6	90	0.00	30.099 
01:00	36.9	36.9	36.9	81	31.6	2	4	90	0.00	30.100 
01:05	37.0	37.0	37.0	80	31.4	1	6	112	0.00	30.100 
01:10	37.0	37.0	37.0	80	31.4	1	3	112	0.00	30.100 
01:15	37.0	37.0	37.0	80	31.4	1	3	112	0.00	30.101 
01:20	37.0	37.0	37.0	81	31.7	0	2	112	0.00	30.101 
01:25	37.0	37.0	37.0	81	31.7	1	2	112	0.00	30.101 
01:30	37.0	37.0	37.0	81	31.7	1	3	112	0.00	30.100 
01:35	37.0	37.0	37.0	81	31.7	0	1	112	0.00	30.100 
01:40	37.0	37.0	37.0	81	31.7	0	1	112	0.00	30.100 
01:45	37.0	37.0	37.0	82	32.0	0	3	112	0.00	30.099 
01:50	37.2	37.2	37.2	82	32.2	0	2	112	0.00	30.099 
01:55	37.2	37.2	37.2	83	32.5	1	4	90	0.00	30.099 
02:00	37.3	37.3	37.3	84	32.9	1	2	90	0.00	30.084 
02:05	37.2	37.2	37.2	84	32.8	0	2	90	0.01	30.084 
02:10	37.2	37.2	37.2	85	33.1	2	4	68	0.00	30.084 
02:15	37.0	37.0	37.0	86	33.2	2	5	90	0.00	30.068 
02:20	37.0	37.0	37.0	87	33.5	1	3	90	0.00	30.068 
02:25	36.9	36.9	36.9	87	33.4	2	4	90	0.01	30.068 
02:30	36.9	36.9	36.9	88	33.7	1	5	90	0.00	30.059 
02:35	36.9	36.9	36.9	88	33.7	2	4	90	0.00	30.059 
02:40	36.8	36.8	36.8	89	33.9	2	6	90	0.00	30.059 
02:45	36.9	36.9	36.9	89	34.0	2	4	90	0.00	30.045 
02:50	36.9	36.9	36.9	90	34.2	2	4	90	0.01	30.045 
02:55	36.9	36.9	36.9	90	34.2	2	6	90	0.00	30.045 
03:00	36.9	36.9	36.9	90	34.2	2	5	90	0.00	30.034 
03:05	36.9	36.9	36.9	91	34.5	2	5	90	0.01	30.034 
03:10	37.0	37.0	37.0	91	34.6	2	5	90	0.00	30.034 
03:15	37.0	37.0	37.0	92	34.9	2	4	90	0.01	30.018 
03:20	37.2	37.2	37.2	92	35.1	2	7	90	0.00	30.018 
03:25	37.2	37.2	37.2	92	35.1	3	5	90	0.01	30.018 
03:30	37.3	37.3	37.3	92	35.2	2	5	90	0.00	30.017 
03:35	37.3	37.3	37.3	93	35.5	1	4	90	0.01	30.017 
03:40	37.6	37.6	37.6	93	35.8	2	4	90	0.01	30.017 
03:45	37.8	37.8	37.8	93	36.0	1	3	90	0.01	30.012 
03:50	37.9	37.9	37.9	93	36.1	2	4	90	0.00	30.012 
03:55	38.0	38.0	38.0	94	36.4	2	5	90	0.01	30.012 
04:00	38.2	38.2	38.2	94	36.6	2	5	90	0.01	30.003 
04:05	38.3	38.3	38.3	94	36.7	3	5	90	0.01	30.003 
04:10	38.5	38.5	38.5	94	36.9	2	4	90	0.01	30.003 
04:15	38.8	35.9	38.8	94	37.2	4	10	90	0.01	29.995 
04:20	38.9	38.9	38.9	94	37.3	3	9	112	0.01	29.995 
04:25	39.1	39.1	39.1	95	37.8	3	5	90	0.01	29.995 
04:30	39.2	39.2	39.2	95	37.9	3	7	90	0.00	29.983 
04:35	39.3	39.3	39.3	95	38.0	3	7	90	0.01	29.983 
04:40	39.3	39.3	39.3	95	38.0	3	6	90	0.00	29.983 
04:45	39.5	39.5	39.5	95	38.2	3	5	90	0.00	29.969 
04:50	39.6	39.6	39.6	95	38.3	3	6	90	0.01	29.969 
04:55	39.6	36.9	39.6	95	38.3	4	9	90	0.00	29.969 
05:00	39.9	36.4	39.9	95	38.6	5	12	90	0.01	29.962 
05:05	40.2	37.5	40.2	95	38.9	4	8	90	0.01	29.962 
05:10	40.3	36.8	40.3	95	39.0	5	11	90	0.01	29.962 
05:15	40.5	40.5	40.5	96	39.5	3	6	90	0.01	29.950 
05:20	40.5	37.1	40.5	96	39.5	5	10	112	0.01	29.950 
05:25	40.6	37.2	40.6	96	39.5	5	13	112	0.00	29.950 
05:30	40.6	37.2	40.6	96	39.5	5	8	90	0.01	29.936 
05:35	40.6	38.0	40.6	93	38.7	4	7	90	0.01	29.936 
05:40	40.6	40.6	40.6	96	39.5	3	7	90	0.00	29.936 
05:45	40.6	38.0	40.6	96	39.5	4	9	112	0.00	29.926 
05:50	40.6	38.0	40.6	96	39.5	4	9	90	0.01	29.926 
05:55	40.6	38.0	40.6	96	39.5	4	11	112	0.00	29.926 
06:00	40.6	37.2	40.6	96	39.5	5	10	90	0.02	29.922 
06:05	40.6	38.0	40.6	96	39.5	4	11	90	0.01	29.922 
06:10	40.6	38.0	40.6	96	39.5	4	10	90	0.00	29.922 
06:15	40.6	37.2	40.6	96	39.5	5	10	112	0.01	29.917 
06:20	40.8	37.4	40.8	96	39.7	5	11	90	0.01	29.917 
06:25	40.8	37.4	40.8	96	39.7	5	10	90	0.01	29.917 
06:30	40.8	38.2	40.8	96	39.7	4	10	90	0.00	29.911 
06:35	40.8	37.4	40.8	96	39.7	5	11	90	0.01	29.911 
06:40	40.8	38.2	40.8	95	39.5	4	11	90	0.01	29.911 
06:45	40.8	38.2	40.8	95	39.5	4	11	112	0.01	29.906 
06:50	40.8	38.2	40.8	96	39.7	4	9	90	0.00	29.906 
06:55	40.8	37.4	40.8	96	39.7	5	14	112	0.00	29.906 
07:00	40.8	40.8	40.8	96	39.7	3	14	90	0.01	29.906 
07:05	40.8	40.8	40.8	95	39.5	3	9	90	0.01	29.906 
07:10	40.8	37.4	40.8	96	39.7	5	10	112	0.00	29.906 
07:15	40.8	38.2	40.8	96	39.7	4	9	112	0.01	29.903 
07:20	40.8	40.8	40.8	95	39.5	3	6	112	0.01	29.903 
07:25	40.8	40.8	40.8	96	39.7	3	10	90	0.00	29.903 
07:30	40.8	38.2	40.8	96	39.7	4	10	112	0.01	29.896 
07:35	40.8	37.4	40.8	95	39.5	5	8	112	0.01	29.896 
07:40	40.9	40.9	40.9	96	39.8	3	6	90	0.00	29.896 
07:45	40.9	38.4	40.9	96	39.8	4	10	112	0.00	29.891 
07:50	40.9	40.9	40.9	96	39.8	3	10	90	0.01	29.891 
07:55	40.9	40.9	40.9	96	39.8	3	9	90	0.00	29.891 
08:00	40.9	40.9	40.9	96	39.8	2	6	90	0.00	29.891 
08:05	40.9	40.9	40.9	96	39.8	2	6	90	0.01	29.891 
08:10	40.9	40.9	40.9	95	39.6	2	4	135	0.00	29.891 
08:15	41.1	41.1	41.1	96	40.0	3	6	90	0.00	29.885 
08:20	41.1	41.1	41.1	96	40.0	3	9	90	0.01	29.885 
08:25	41.1	41.1	41.1	96	40.0	3	6	90	0.00	29.885 
08:30	41.1	41.1	41.1	92	39.0	2	5	112	0.01	29.881 
08:35	41.1	41.1	41.1	96	40.0	3	12	112	0.00	29.881 
08:40	41.2	38.7	41.2	96	40.1	4	10	90	0.01	29.881 
08:45	41.2	41.2	41.2	96	40.1	3	7	90	0.01	29.874 
08:50	41.2	41.2	41.2	96	40.1	3	9	112	0.01	29.874 
08:55	41.2	41.2	41.2	96	40.1	3	9	112	0.00	29.874 
09:00	41.2	41.2	41.2	96	40.1	3	7	112	0.01	29.866 
09:05	41.2	41.2	41.2	96	40.1	3	5	90	0.00	29.866 
09:10	41.2	38.7	41.2	96	40.1	4	9	112	0.00	29.866 
09:15	41.3	41.3	41.3	96	40.2	3	6	90	0.01	29.866 
09:20	41.3	41.3	41.3	96	40.2	2	7	112	0.00	29.866 
09:25	41.3	41.3	41.3	96	40.2	2	5	112	0.00	29.866 
09:30	41.3	41.3	41.3	96	40.2	2	4	90	0.00	29.863 
09:35	41.3	41.3	41.3	96	40.2	2	6	112	0.01	29.863 
09:40	41.3	41.3	41.3	96	40.2	3	7	112	0.00	29.863 
09:45	41.3	41.3	41.3	96	40.2	3	6	90	0.00	29.859 
09:50	41.5	41.5	41.5	96	40.4	2	5	90	0.01	29.859 
09:55	41.5	41.5	41.5	96	40.4	3	6	90	0.01	29.859 
10:00	41.5	41.5	41.5	96	40.4	1	4	90	0.00	29.854 
10:05	41.6	41.6	41.6	96	40.5	1	5	90	0.01	29.854 
10:10	41.6	41.6	41.6	96	40.5	1	5	90	0.00	29.854 
10:15	41.6	41.6	41.6	96	40.5	1	4	112	0.01	29.851 
10:20	41.8	41.8	41.8	96	40.7	2	4	90	0.00	29.851 
10:25	41.8	41.8	41.8	96	40.7	1	5	135	0.01	29.851 
10:30	41.8	41.8	41.8	96	40.7	0	3	135	0.00	29.847 
10:35	41.9	41.9	41.9	96	40.8	2	5	90	0.00	29.847 
10:40	41.9	41.9	41.9	96	40.8	2	7	112	0.01	29.847 
10:45	42.1	42.1	42.1	96	41.0	2	5	90	0.00	29.837 
10:50	42.1	42.1	42.1	96	41.0	2	4	112	0.00	29.837 
10:55	42.2	42.2	42.2	96	41.1	2	4	112	0.00	29.837 
11:00	42.2	42.2	42.2	96	41.1	1	5	90	0.00	29.834 
11:05	42.3	42.3	42.3	96	41.2	1	4	112	0.00	29.834 
11:10	42.3	42.3	42.3	96	41.2	1	3	112	0.01	29.834 
11:15	42.5	42.5	42.5	96	41.4	1	4	90	0.00	29.828 
11:20	42.6	42.6	42.6	96	41.5	2	7	112	0.00	29.828 
11:25	42.6	42.6	42.6	96	41.5	2	5	112	0.00	29.828 
11:30	42.8	42.8	42.8	96	41.7	0	3	112	0.00	29.824 
11:35	42.8	42.8	42.8	96	41.7	1	3	112	0.01	29.824 
11:40	42.9	42.9	42.9	96	41.8	1	3	90	0.00	29.824 
11:45	42.9	42.9	42.9	96	41.8	2	4	135	0.01	29.817 
11:50	43.1	43.1	43.1	96	42.0	1	7	112	0.01	29.817 
11:55	43.1	43.1	43.1	96	42.0	1	3	135	0.01	29.817 
12:00	43.1	43.1	43.1	96	42.0	1	5	112	0.00	29.813 
12:05	43.2	43.2	43.2	96	42.1	1	4	90	0.01	29.813 
12:10	43.2	43.2	43.2	96	42.1	1	3	90	0.00	29.813 
12:15	43.3	43.3	43.3	96	42.2	0	2	112	0.01	29.811 
12:20	43.3	43.3	43.3	96	42.2	1	4	112	0.00	29.811 
12:25	43.5	43.5	43.5	96	42.4	1	3	112	0.00	29.811 
12:30	43.5	43.5	43.5	96	42.4	0	3	112	0.00	29.809 
12:35	43.6	43.6	43.6	96	42.5	0	2	112	0.00	29.809 
12:40	43.8	43.8	43.8	96	42.7	1	3	90	0.00	29.809 
12:45	43.9	43.9	43.9	96	42.8	0	3	112	0.00	29.803 
12:50	43.9	43.9	43.9	96	42.8	1	3	112	0.01	29.803 
12:55	44.1	44.1	44.1	96	43.0	0	2	112	0.00	29.803 
13:00	44.2	44.2	44.2	96	43.1	0	2	112	0.00	29.801 
13:05	44.3	44.3	44.3	96	43.2	0	1	112	0.00	29.801 
13:10	44.5	44.5	44.5	96	43.4	1	2	112	0.00	29.801 
13:15	44.5	44.5	44.5	96	43.4	0	2	112	0.00	29.791 
13:20	44.6	44.6	44.6	96	43.5	1	2	112	0.00	29.791 
13:25	44.8	44.8	44.8	96	43.7	0	3	112	0.00	29.791 
13:30	44.8	44.8	44.8	96	43.7	0	3	135	0.00	29.784 
13:35	44.9	44.9	44.9	96	43.8	0	2	135	0.01	29.784 
13:40	45.1	45.1	45.1	96	44.0	1	3	135	0.00	29.784 
13:45	45.1	45.1	45.1	96	44.0	0	1	135	0.00	29.782 
13:50	45.2	45.2	45.2	96	44.1	0	2	135	0.00	29.782 
13:55	45.2	45.2	45.2	96	44.1	1	3	135	0.00	29.782 
14:00	45.2	45.2	45.2	96	44.1	0	2	135	0.00	29.779 
14:05	45.4	45.4	45.4	96	44.3	0	1	135	0.00	29.779 
14:10	45.5	45.5	45.5	96	44.4	0	2	135	0.01	29.779 
14:15	45.7	45.7	45.7	96	44.6	0	2	135	0.00	29.771 
14:20	45.8	45.8	45.8	96	44.7	1	3	135	0.00	29.771 
14:25	46.0	46.0	46.0	96	44.9	0	2	135	0.00	29.771 
14:30	46.1	46.1	46.1	96	45.0	1	3	112	0.00	29.767 
14:35	46.2	46.2	46.2	96	45.1	0	2	112	0.00	29.767 
14:40	46.2	46.2	46.2	96	45.1	1	3	112	0.00	29.767 
14:45	46.4	46.4	46.4	96	45.3	1	4	112	0.00	29.763 
14:50	46.5	46.5	46.5	96	45.4	1	6	112	0.00	29.763 
14:55	46.7	46.7	46.7	96	45.6	1	2	158	0.00	29.763 
15:00	46.8	46.8	46.8	96	45.7	1	3	90	0.00	29.755 
15:05	46.8	46.8	46.8	96	45.7	1	4	112	0.00	29.755 
15:10	47.0	47.0	47.0	96	45.9	1	3	135	0.00	29.755 
15:15	47.1	47.1	47.1	96	46.0	1	4	135	0.00	29.756 
15:20	47.3	47.3	47.3	96	46.2	1	4	90	0.00	29.756 
15:25	47.4	47.4	47.4	96	46.3	1	3	135	0.00	29.756 
15:30	47.4	47.4	47.4	96	46.3	1	4	22	0.00	29.757 
15:35	47.6	47.6	47.6	96	46.5	1	3	135	0.00	29.757 
15:40	47.6	47.6	47.6	96	46.5	1	3	112	0.00	29.757 
15:45	47.7	47.7	47.7	96	46.6	0	1	112	0.00	29.758 
15:50	47.7	47.7	47.7	96	46.6	1	3	112	0.00	29.758 
15:55	47.7	47.7	47.7	96	46.6	1	3	112	0.00	29.758 
16:00	47.7	47.7	47.7	96	46.6	0	3	315	0.00	29.758 
16:05	47.7	47.7	47.7	96	46.6	1	4	135	0.00	29.758 
16:10	47.7	47.7	47.7	96	46.6	1	4	112	0.00	29.758 
16:15	47.7	47.7	47.7	96	46.6	0	3	112	0.00	29.763 
16:20	47.7	47.7	47.7	96	46.6	0	3	90	0.00	29.763 
16:25	47.7	47.7	47.7	96	46.6	1	4	90	0.00	29.763 
16:30	47.7	47.7	47.7	96	46.6	1	3	112	0.00	29.764 
16:35	47.9	47.9	47.9	96	46.8	1	3	112	0.00	29.764 
16:40	47.9	47.9	47.9	96	46.8	0	3	112	0.00	29.764 
16:45	47.9	47.9	47.9	96	46.8	0	1	248	0.00	29.762 
16:50	48.0	48.0	48.0	96	46.9	0	1	248	0.00	29.762 
16:55	48.0	48.0	48.0	96	46.9	0	1	248	0.00	29.762 
17:00	48.0	48.0	48.0	96	46.9	0	2	248	0.00	29.762 
17:05	48.0	48.0	48.0	96	46.9	0	1	225	0.00	29.762 
17:10	48.2	48.2	48.2	96	47.1	0	1	225	0.00	29.762 
17:15	48.2	48.2	48.2	96	47.1	0	1	225	0.00	29.762 
17:20	48.2	48.2	48.2	96	47.1	0	2	225	0.00	29.762 
17:25	48.2	48.2	48.2	96	47.1	0	2	225	0.00	29.762 
17:30	48.2	48.2	48.2	96	47.1	0	1	225	0.00	29.764 
17:35	48.3	48.3	48.3	96	47.2	0	1	225	0.00	29.764 
17:40	48.2	48.2	48.2	96	47.1	0	2	225	0.00	29.764 
17:45	48.2	48.2	48.2	96	47.1	0	1	225	0.00	29.763 
17:50	48.3	48.3	48.3	96	47.2	0	1	225	0.00	29.763 
17:55	48.3	48.3	48.3	96	47.2	0	1	225	0.00	29.763 
18:00	48.3	48.3	48.3	96	47.2	0	1	225	0.00	29.765 
18:05	48.3	48.3	48.3	96	47.2	0	2	225	0.00	29.765 
18:10	48.3	48.3	48.3	96	47.2	0	1	225	0.00	29.765 
18:15	48.3	48.3	48.3	96	47.2	0	1	225	0.00	29.778 
18:20	48.3	48.3	48.3	96	47.2	0	1	225	0.00	29.778 
18:25	48.3	48.3	48.3	96	47.2	0	2	225	0.00	29.778 
18:30	48.3	48.3	48.3	96	47.2	0	2	225	0.00	29.785 
18:35	48.5	48.5	48.5	96	47.4	0	3	225	0.00	29.785 
18:40	48.6	48.6	48.6	96	47.5	1	4	270	0.00	29.785 
18:45	48.6	48.6	48.6	96	47.5	0	2	270	0.00	29.781 
18:50	48.6	48.6	48.6	97	47.8	1	4	270	0.00	29.781 
18:55	48.6	48.6	48.6	96	47.5	0	2	270	0.00	29.781 
19:00	48.6	48.6	48.6	96	47.5	1	3	270	0.00	29.788 
19:05	48.6	48.6	48.6	96	47.5	0	1	270	0.00	29.788 
19:10	48.5	48.5	48.5	96	47.4	0	1	270	0.00	29.788 
19:15	48.5	48.5	48.5	96	47.4	0	1	270	0.00	29.787 
19:20	48.3	48.3	48.3	96	47.2	0	0	---	0.00	29.787 
19:25	48.2	48.2	48.2	96	47.1	0	1	270	0.00	29.787 
19:30	48.0	48.0	48.0	96	46.9	0	1	270	0.00	29.794 
19:35	48.0	48.0	48.0	96	46.9	0	0	---	0.00	29.794 
19:40	47.9	47.9	47.9	96	46.8	0	1	270	0.00	29.794 
19:45	47.7	47.7	47.7	96	46.6	0	0	---	0.00	29.796 
19:50	47.7	47.7	47.7	96	46.6	0	1	270	0.00	29.796 
19:55	47.6	47.6	47.6	96	46.5	0	0	---	0.00	29.796 
20:00	47.6	47.6	47.6	96	46.5	0	0	---	0.00	29.790 
20:05	47.3	47.3	47.3	96	46.2	0	0	---	0.00	29.790 
20:10	47.1	47.1	47.1	96	46.0	0	0	---	0.00	29.790 
20:15	47.1	47.1	47.1	96	46.0	0	1	270	0.01	29.796 
20:20	47.3	47.3	47.3	97	46.5	0	1	270	0.00	29.796 
20:25	47.3	47.3	47.3	97	46.5	0	1	270	0.00	29.796 
20:30	47.3	47.3	47.3	97	46.5	0	1	270	0.00	29.794 
20:35	47.3	47.3	47.3	97	46.5	0	1	270	0.00	29.794 
20:40	47.3	47.3	47.3	97	46.5	0	1	270	0.00	29.794 
20:45	47.1	47.1	47.1	97	46.3	0	1	270	0.00	29.795 
20:50	47.3	47.3	47.3	97	46.5	1	3	270	0.00	29.795 
20:55	47.3	47.3	47.3	97	46.5	0	2	270	0.00	29.795 
21:00	47.3	47.3	47.3	97	46.5	1	4	270	0.00	29.796 
21:05	47.3	47.3	47.3	97	46.5	1	3	248	0.00	29.796 
21:10	47.3	47.3	47.3	97	46.5	1	3	248	0.00	29.796 
21:15	47.3	47.3	47.3	97	46.5	0	3	248	0.00	29.796 
21:20	47.3	47.3	47.3	97	46.5	2	7	248	0.00	29.796 
21:25	47.3	47.3	47.3	97	46.5	2	5	248	0.00	29.796 
21:30	47.1	47.1	47.1	97	46.3	1	5	248	0.00	29.798 
21:35	47.0	47.0	47.0	97	46.2	1	4	248	0.00	29.798 
21:40	46.8	46.8	46.8	96	45.7	1	5	248	0.00	29.798 
21:45	46.7	46.7	46.7	96	45.6	1	3	248	0.00	29.805 
21:50	46.5	46.5	46.5	96	45.4	1	3	248	0.00	29.805 
21:55	46.4	46.4	46.4	96	45.3	1	5	248	0.00	29.805 
22:00	46.2	46.2	46.2	96	45.1	1	5	270	0.00	29.810 
22:05	46.2	46.2	46.2	96	45.1	0	2	270	0.00	29.810 
22:10	46.1	46.1	46.1	96	45.0	0	2	270	0.00	29.810 
22:15	46.1	46.1	46.1	96	45.0	0	2	270	0.00	29.814 
22:20	46.1	46.1	46.1	96	45.0	1	2	270	0.00	29.814 
22:25	46.1	46.1	46.1	96	45.0	1	3	270	0.00	29.814 
22:30	46.0	46.0	46.0	96	44.9	0	2	270	0.00	29.814 
22:35	46.0	46.0	46.0	96	44.9	1	4	270	0.00	29.814 
22:40	46.0	46.0	46.0	96	44.9	1	2	248	0.00	29.814 
22:45	45.8	45.8	45.8	96	44.7	1	4	248	0.00	29.821 
22:50	45.8	45.8	45.8	96	44.7	1	3	248	0.00	29.821 
22:55	45.8	45.8	45.8	96	44.7	1	5	248	0.00	29.821 
23:00	45.7	45.7	45.7	96	44.6	1	3	248	0.00	29.817 
23:05	45.7	45.7	45.7	96	44.6	2	5	248	0.00	29.817 
23:10	45.7	45.7	45.7	96	44.6	1	3	248	0.00	29.817 
23:15	45.5	45.5	45.5	96	44.4	1	3	248	0.00	29.818 
23:20	45.4	45.4	45.4	96	44.3	1	5	248	0.00	29.818 
23:25	45.4	45.4	45.4	96	44.3	1	3	248	0.00	29.818 
23:30	45.4	45.4	45.4	96	44.3	1	3	248	0.00	29.820 
23:35	45.2	45.2	45.2	96	44.1	0	2	248	0.00	29.820 
23:40	45.1	45.1	45.1	96	44.0	1	3	248	0.00	29.820 
23:45	44.9	44.9	44.9	95	43.6	0	2	225	0.00	29.815 
23:50	44.9	44.9	44.9	96	43.8	1	4	248	0.00	29.815 
23:55	44.8	44.8	44.8	95	43.5	1	3	248	0.00	29.815 

CoCoRaHS
IN-AL-39
A2 Web Hosting
Creative Commons License
GoDaddy
search engine by freefind advanced

loaded 2018-11-18 11:20:21 • last modified 2010-11-18 10:43:29
Privacy PolicyDisclaimer
• wx.awcolley.com is powered by PmWiki v.2002016 •
• all content (unless otherwise noted) © 2018 A W Colley